Terminal Aerodrome Forecast
Issued by NWS

Home | Current Version | Previous Version | Graphics & Text | Print | Product List | Glossary On
Versions: 1 2 3 4 5 6 7 8 9 10 11 12 13 14 15 16 17 18 19 20 21 22 23 24 25 26 27 28
000
FTUS43 KABR 171700
TAFMBG
TAF
KMBG 171720Z 1718/1818 34016G23KT P6SM OVC024
     FM172100 35010KT P6SM OVC025
     FM180200 VRB05KT P6SM SCT025
     FM181200 13006KT P6SM SKC=

USA.gov is the U.S. government's official web portal to all federal, state and local government web resources and services.